メインページ
METAR-TAF:

METAR-TAF

空港 :

コンコード, ニューハンプシャー州, アメリカ合衆国

緯度: 43-11-43N, 経度: 071-30-04W, 海抜: 105m

現時点の気象観測

当レポートは36分前の23:51(UTC)に作成
東/南東の風 3kt
気温 18°C
湿度 77%
気圧 1025 hPa
視程: 16.1km
高度7000ftの雲は散在している

METAR: KCON 242351Z AUTO 12003KT 10SM SCT070 18/14 A3026 RMK AO2 SLP246 T01830139 10244 20183 53020

時間: 20:27 (00:27 UTC)

予報

当レポートは1時間7分前の23:20(UTC)に作成
予報は25日の 00時(UTC)から 25日の 24時(UTC)まで有効
東/南東の風 4kt
視程: 10km
高度7000ftの雲は散在している
25日の 1400時(UTC)から
北東の風 7kt
視程: 10km
高度4000ftの雲はほとんどない

TAF: KCON 242320Z 2500/2524 11004KT P6SM SCT070 FM251400 05007KT P6SM FEW040

4,000以上の空港の気象観測と天気予報(METAR報とTAF報)

利用可能な観測所は地図上に黄色い丸と赤い丸で示す。

丸の上にカーソルを重ねると観測所名を参照できる。

次にクリックすると気象観測と天気予報を参照できる。

マップの切り替え:黒色「×」印の緑ボタンをクリックして拡大、「-」印の緑ボタンをクリックして縮小、緑色の三角印をクリックして隣りの地図に切り替え


METAR-TAF: